Latest Weather Observations for Laverton

IDW60801

Issued at 7:05 pm WST Tuesday 22 July 2014 (issued every 30 minutes, with the page automatically refreshed every 10 minutes)

About weather observations | Map of weather stations | Latest weather observations for WA | Other Formats
Station Details ID: 012305 Name: LAVERTON AERO Lat: -28.61 Lon: 122.42 Height: 464.3 m
Data from the previous 72 hours. | See also: Recent months at Laverton
Date/Time
WST
Temp
°C
App
Temp
°C
Dew
Point
Rel
Hum
%
Delta-T
°C
Wind Press
QNH
hPa
Press
MSL
hPa
Rain
since 9 am
mm
Dir
 
Spd
km/h
Gust
km/h
Spd
kts
Gust
kts
22/07:00pm 11.8 7.5 5.4 65 3.0 W 17 22 9 12 1017.6 1017.4 0.2
22/06:30pm 12.3 8.1 5.5 63 3.2 W 17 22 9 12 1017.1 - 0.2
22/06:00pm 12.4 8.3 6.0 65 3.1 W 17 24 9 13 1016.7 1016.4 0.2
22/05:30pm 12.5 7.1 6.3 66 3.0 WSW 24 33 13 18 1016.2 - 0.2
22/05:00pm 13.3 5.6 5.2 58 3.9 WSW 35 50 19 27 1015.8 1015.6 0.2
22/04:57pm 13.9 7.1 5.3 56 4.1 WSW 30 50 16 27 1015.7 - 0.2
22/04:30pm 14.5 7.5 5.8 56 4.2 SW 32 41 17 22 1015.3 - 0.2
22/04:00pm 16.7 8.6 3.0 40 6.4 W 35 46 19 25 1014.6 1014.3 0.2
22/03:38pm 15.8 9.3 4.8 48 5.3 W 28 48 15 26 1014.3 - 0.2
22/03:30pm 16.2 10.2 5.2 48 5.4 W 26 39 14 21 1014.2 - 0.2
22/03:00pm 17.6 10.2 3.9 40 6.6 W 32 43 17 23 1013.6 1013.4 0.2
22/02:46pm 16.0 10.0 7.0 55 4.6 W 28 44 15 24 1013.8 - 0.2
22/02:30pm 15.8 12.5 8.1 60 4.0 NW 15 22 8 12 1013.6 - 0.2
22/02:01pm 14.9 9.3 8.8 67 3.2 W 28 46 15 25 1014.0 - 0.0
22/02:00pm 14.8 8.9 9.2 69 2.9 W 30 46 16 25 1014.0 1013.8 0.0
22/01:30pm 18.3 10.8 3.4 37 7.1 W 32 39 17 21 1013.4 - 0.0
22/01:00pm 18.6 11.9 3.6 37 7.2 W 28 39 15 21 1013.8 1013.6 0.0
22/12:30pm 18.0 10.3 2.3 35 7.3 W 32 46 17 25 1014.4 - 0.0
22/12:04pm 18.3 11.2 3.8 38 7.0 W 30 50 16 27 1014.9 - 0.0
22/12:00pm 18.5 11.5 4.3 39 6.9 W 30 41 16 22 1015.0 1014.8 0.0
22/11:30am 17.1 11.4 5.1 45 5.9 W 24 33 13 18 1015.7 - 0.0
22/11:00am 16.4 10.7 5.1 47 5.5 WSW 24 35 13 19 1016.1 1015.9 0.0
22/10:30am 14.9 9.3 5.4 53 4.6 WNW 24 30 13 16 1016.7 - 0.0
22/10:00am 15.2 9.8 6.5 56 4.3 WNW 24 30 13 16 1017.1 1016.9 0.0
22/09:30am 15.2 9.8 6.5 56 4.3 NW 24 32 13 17 1016.8 - 0.0
22/09:00am 15.4 9.7 6.7 56 4.4 N 26 35 14 19 1016.5 1016.2 0.0
22/08:30am 13.6 9.0 6.7 63 3.4 N 20 30 11 16 1016.7 - 0.0
22/08:00am 12.2 8.9 6.3 67 2.9 N 13 19 7 10 1016.6 1016.3 0.0
22/07:30am 12.1 8.4 6.2 67 2.9 N 15 19 8 10 1016.3 - 0.0
22/07:00am 10.7 6.4 5.3 69 2.5 NNE 17 20 9 11 1015.9 1015.7 0.0
22/06:30am 10.7 6.8 5.3 69 2.5 N 15 19 8 10 1015.9 - 0.0
22/06:00am 10.6 6.7 5.2 69 2.5 N 15 19 8 10 1015.8 1015.6 0.0
22/05:30am 10.2 6.5 4.6 68 2.6 N 13 17 7 9 1015.8 - 0.0
22/05:00am 10.3 6.6 4.2 66 2.8 N 13 15 7 8 1015.8 1015.6 0.0
22/04:30am 10.3 6.2 4.5 67 2.7 NNE 15 19 8 10 1015.6 - 0.0
22/04:00am 7.3 4.7 3.4 76 1.7 NNE 6 11 3 6 1016.0 1015.8 0.0
22/03:30am 7.7 4.2 3.4 74 1.9 ENE 11 13 6 7 1016.0 - 0.0
22/03:00am 8.1 4.6 3.6 73 2.0 ENE 11 11 6 6 1016.3 1016.1 0.0
22/02:30am 7.2 2.9 3.4 77 1.7 E 15 17 8 9 1016.5 - 0.0
22/02:00am 7.2 4.1 3.4 77 1.7 ESE 9 11 5 6 1016.9 1016.7 0.0
22/01:30am 7.1 4.3 3.2 76 1.7 E 7 9 4 5 1017.0 - 0.0
22/01:00am 7.1 3.9 3.0 75 1.8 ENE 9 11 5 6 1017.2 1017.0 0.0
22/12:30am 7.5 3.6 3.2 74 1.9 ENE 13 17 7 9 1017.2 - 0.0
22/12:00am 7.6 4.1 3.3 74 1.9 E 11 15 6 8 1017.5 1017.3 0.0
 
Date/Time
WST
Temp
°C
App
Temp
°C
Dew
Point
Rel
Hum
%
Delta-T
°C
Wind Press
QNH
hPa
Press
MSL
hPa
Rain
since 9 am
mm
Dir
 
Spd
km/h
Gust
km/h
Spd
kts
Gust
kts
21/11:30pm 7.8 4.3 3.3 73 2.0 E 11 13 6 7 1017.4 - 0.0
21/11:00pm 7.7 3.4 3.2 73 2.0 E 15 15 8 8 1017.4 1017.2 0.0
21/10:30pm 7.6 4.1 3.3 74 1.9 E 11 13 6 7 1017.8 - 0.0
21/10:00pm 7.8 4.7 3.5 74 1.9 ENE 9 11 5 6 1018.1 1017.9 0.0
21/09:30pm 8.2 5.5 3.7 73 2.0 ENE 7 9 4 5 1018.3 - 0.0
21/09:00pm 8.6 5.9 3.8 72 2.1 NE 7 9 4 5 1018.5 1018.3 0.0
21/08:30pm 9.1 6.1 3.9 70 2.3 NNE 9 11 5 6 1018.5 - 0.0
21/08:00pm 10.3 7.9 4.2 66 2.8 NNE 6 7 3 4 1018.5 1018.3 0.0
21/07:30pm 11.3 8.4 4.5 63 3.2 N 9 9 5 5 1018.5 - 0.0
21/07:00pm 12.1 9.2 4.8 61 3.4 N 9 13 5 7 1018.5 1018.3 0.0
21/06:30pm 12.4 9.2 4.9 60 3.5 N 11 13 6 7 1018.3 - 0.0
21/06:00pm 14.0 11.5 4.9 54 4.3 N 7 11 4 6 1017.8 1017.6 0.0
21/05:30pm 16.0 14.1 5.0 48 5.3 NNW 4 6 2 3 1017.4 - 0.0
21/05:00pm 17.8 15.4 5.1 43 6.3 NW 7 9 4 5 1017.3 1017.1 0.0
21/04:30pm 18.5 16.0 5.0 41 6.7 NW 7 17 4 9 1017.4 - 0.0
21/04:00pm 18.9 16.4 5.0 40 6.9 N 7 13 4 7 1017.5 1017.3 0.0
21/03:30pm 18.7 16.0 5.5 42 6.6 WNW 9 15 5 8 1017.6 - 0.0
21/03:00pm 19.0 16.2 5.1 40 6.9 WNW 9 15 5 8 1017.5 1017.3 0.0
21/02:30pm 18.8 16.4 5.3 41 6.7 NW 7 13 4 7 1017.8 - 0.0
21/02:00pm 18.1 14.7 5.7 44 6.2 WNW 13 26 7 14 1017.9 1017.7 0.0
21/01:30pm 17.9 14.5 6.1 46 5.9 W 13 20 7 11 1018.2 - 0.0
21/01:00pm 17.3 13.6 6.5 49 5.4 W 15 24 8 13 1018.6 1018.5 0.0
21/12:30pm 17.3 13.8 7.1 51 5.2 WNW 15 22 8 12 1019.2 - 0.0
21/12:00pm 16.2 12.4 7.4 56 4.5 W 17 24 9 13 1019.7 1019.5 0.0
21/11:30am 16.2 12.1 7.9 58 4.3 W 19 26 10 14 1020.2 - 0.0
21/11:00am 15.6 11.8 7.6 59 4.1 W 17 24 9 13 1020.5 1020.4 0.0
21/10:30am 15.3 11.7 8.5 64 3.5 WSW 17 22 9 12 1020.8 - 0.0
21/10:00am 14.9 11.0 8.8 67 3.2 WSW 19 24 10 13 1021.2 1021.0 0.0
21/09:30am 13.7 11.1 9.4 75 2.2 WSW 13 19 7 10 1021.4 - 0.0
21/09:00am 12.6 10.0 9.2 80 1.8 W 13 19 7 10 1021.2 1021.0 0.0
21/08:30am 11.7 8.8 9.6 87 1.1 W 15 19 8 10 1020.9 - 0.0
21/08:00am 10.3 8.2 9.7 96 0.3 WNW 11 15 6 8 1020.5 1020.4 0.0
21/07:30am 9.1 6.7 8.8 98 0.2 NNW 11 13 6 7 1020.2 - 0.0
21/07:00am 6.8 4.3 6.5 98 0.1 NW 9 9 5 5 1019.9 1019.7 0.0
21/06:30am 6.4 3.8 6.1 98 0.1 WNW 9 9 5 5 1019.4 - 0.0
21/06:00am 6.7 4.5 6.4 98 0.1 W 7 7 4 4 1019.0 1018.8 0.0
21/05:30am 7.0 4.5 6.7 98 0.1 WNW 9 11 5 6 1018.8 - 0.0
21/05:00am 7.6 5.2 7.0 96 0.3 NW 9 11 5 6 1018.4 1018.2 0.0
21/04:30am 8.8 6.5 7.6 92 0.6 WNW 9 9 5 5 1018.3 - 0.0
21/04:00am 9.2 6.9 7.3 88 0.9 W 9 15 5 8 1018.2 1018.0 0.0
21/03:30am 8.8 6.0 6.8 87 1.0 W 11 15 6 8 1018.2 - 0.0
21/03:00am 8.9 6.0 6.3 84 1.2 W 11 13 6 7 1018.2 1018.0 0.0
21/02:30am 9.2 6.6 6.3 82 1.4 WNW 9 13 5 7 1018.1 - 0.0
21/02:00am 10.0 7.1 6.3 78 1.8 W 11 13 6 7 1018.0 1017.8 0.0
21/01:30am 11.0 7.7 6.4 73 2.2 W 13 22 7 12 1017.9 - 0.0
21/01:00am 11.4 7.6 5.7 68 2.7 W 15 20 8 11 1018.0 1017.8 0.0
21/12:30am 12.0 8.1 5.4 64 3.1 WNW 15 20 8 11 1017.8 - 0.0
21/12:00am 11.8 8.9 4.5 61 3.4 W 9 11 5 6 1018.0 1017.8 0.0
 
Date/Time
WST
Temp
°C
App
Temp
°C
Dew
Point
Rel
Hum
%
Delta-T
°C
Wind Press
QNH
hPa
Press
MSL
hPa
Rain
since 9 am
mm
Dir
 
Spd
km/h
Gust
km/h
Spd
kts
Gust
kts
20/11:30pm 12.8 9.0 4.0 55 4.1 WNW 13 17 7 9 1018.0 - 0.0
20/11:00pm 12.7 8.8 3.6 54 4.2 NNW 13 17 7 9 1018.1 1017.9 0.0
20/10:30pm 12.5 8.6 3.5 54 4.1 NNW 13 17 7 9 1018.2 - 0.0
20/10:00pm 12.4 8.5 3.6 55 4.0 NNW 13 17 7 9 1018.2 1018.0 0.0
20/09:30pm 12.4 8.4 3.1 53 4.2 NNW 13 17 7 9 1018.1 - 0.0
20/09:00pm 12.1 8.1 3.1 54 4.1 NNW 13 15 7 8 1017.9 1017.7 0.0
20/08:30pm 12.0 8.5 3.5 56 3.9 N 11 13 6 7 1017.8 - 0.0
20/08:00pm 11.3 7.9 3.8 60 3.4 N 11 13 6 7 1017.9 1017.7 0.0
20/07:30pm 10.7 7.2 3.3 60 3.3 N 11 13 6 7 1017.6 - 0.0
20/07:00pm 11.9 8.3 3.2 55 3.9 NNW 11 13 6 7 1017.2 1017.0 0.0
20/06:30pm 12.9 8.9 2.7 50 4.6 NNW 13 15 7 8 1017.0 - 0.0
20/06:00pm 13.7 10.8 2.6 47 5.0 NW 7 9 4 5 1016.8 1016.6 0.0
20/05:30pm 15.4 11.3 2.2 41 6.0 WNW 13 17 7 9 1016.3 - 0.0
20/05:00pm 16.9 11.3 1.4 35 7.0 WNW 20 28 11 15 1016.1 1015.9 0.0
20/04:30pm 17.6 11.2 0.7 32 7.6 W 24 33 13 18 1015.9 - 0.0
20/04:00pm 18.1 11.8 1.6 33 7.6 WNW 24 32 13 17 1015.7 1015.5 0.0
20/03:30pm 18.2 12.1 2.9 36 7.2 W 24 32 13 17 1015.4 - 0.0
20/03:00pm 18.4 12.4 3.1 36 7.3 WNW 24 37 13 20 1015.3 1015.1 0.0
20/02:30pm 18.2 12.8 4.7 41 6.6 WNW 22 32 12 17 1015.3 - 0.0
20/02:00pm 17.7 11.0 5.6 45 6.0 WNW 30 41 16 22 1015.2 1015.0 0.0
20/01:30pm 17.6 11.4 6.2 47 5.7 WNW 28 39 15 21 1015.1 - 0.0
20/01:00pm 17.7 11.9 8.0 53 5.1 NNW 28 35 15 19 1015.2 1015.0 0.0
20/12:30pm 18.0 13.6 9.1 56 4.8 WNW 22 32 12 17 1015.5 - 0.0
20/12:00pm 16.9 12.0 8.6 58 4.4 NW 24 35 13 19 1016.0 1015.8 0.0
20/11:30am 16.7 12.0 9.1 61 4.0 NW 24 35 13 19 1016.5 - 0.0
20/11:00am 16.5 10.7 9.4 63 3.8 NW 30 37 16 20 1017.0 1016.8 0.0
20/10:30am 15.4 10.1 9.7 69 3.0 NNW 28 37 15 20 1017.4 - 0.0
20/10:00am 15.0 10.0 9.4 69 2.9 NW 26 33 14 18 1017.8 1017.6 0.0
20/09:30am 13.7 8.9 8.7 72 2.6 NNW 24 35 13 19 1017.9 - 0.0
20/09:00am 12.8 9.1 9.3 79 1.8 NNW 19 28 10 15 1018.0 1017.8 0.2
20/08:30am 11.4 8.5 9.5 88 1.0 NNW 15 24 8 13 1017.8 - 0.2
20/08:00am 9.7 7.0 8.9 95 0.4 N 13 17 7 9 1017.6 1017.4 0.2
20/07:30am 8.8 5.2 8.5 98 0.1 N 17 22 9 12 1017.3 - 0.2
20/07:00am 7.0 5.1 6.7 98 0.1 NNW 6 7 3 4 1017.2 1017.0 0.2
20/06:30am 7.1 4.3 6.8 98 0.1 N 11 15 6 8 1017.0 - 0.2
20/06:00am 7.5 4.4 7.2 98 0.1 N 13 15 7 8 1017.0 1016.8 0.2
20/05:30am 7.7 4.6 7.4 98 0.1 N 13 15 7 8 1016.9 - 0.2
20/05:00am 7.9 4.9 7.6 98 0.1 N 13 19 7 10 1016.9 1016.7 0.2
20/04:30am 7.7 4.6 7.4 98 0.1 N 13 17 7 9 1016.9 - 0.2
20/04:00am 7.9 4.5 7.6 98 0.1 N 15 19 8 10 1017.2 1017.0 0.2
20/03:30am 7.6 4.5 7.3 98 0.1 N 13 15 7 8 1017.6 - 0.2
20/03:00am 7.3 4.1 7.0 98 0.1 N 13 15 7 8 1018.0 1017.8 0.0
20/02:30am 7.5 4.4 7.2 98 0.1 N 13 15 7 8 1018.1 - 0.0
20/02:00am 7.6 4.5 7.3 98 0.1 N 13 17 7 9 1018.2 1018.0 0.0
20/01:30am 7.3 4.5 7.0 98 0.1 N 11 15 6 8 1018.1 - 0.0
20/01:00am 7.4 5.4 7.1 98 0.1 N 7 9 4 5 1018.3 1018.1 0.0
20/12:30am 7.7 5.4 7.4 98 0.1 NNE 9 11 5 6 1018.5 - 0.0
20/12:00am 6.7 4.2 6.4 98 0.1 NE 9 11 5 6 1018.4 1018.2 0.0
 
Date/Time
WST
Temp
°C
App
Temp
°C
Dew
Point
Rel
Hum
%
Delta-T
°C
Wind Press
QNH
hPa
Press
MSL
hPa
Rain
since 9 am
mm
Dir
 
Spd
km/h
Gust
km/h
Spd
kts
Gust
kts
19/11:30pm 8.1 5.5 7.8 98 0.1 NNE 11 11 6 6 1018.9 - 0.0
19/11:00pm 7.8 5.1 7.5 98 0.1 NNE 11 13 6 7 1019.2 1019.0 0.0
19/10:30pm 8.3 7.7 7.5 95 0.4 CALM 0 0 0 0 1019.6 - 0.0
19/10:00pm 9.0 8.5 7.8 92 0.6 CALM 0 0 0 0 1019.8 1019.6 0.0
19/09:30pm 9.9 9.4 8.0 88 0.9 CALM 0 0 0 0 1019.9 - 0.0
19/09:00pm 11.3 9.8 8.5 83 1.4 N 6 7 3 4 1020.0 1019.8 0.0
19/08:30pm 11.9 10.0 8.9 82 1.5 NE 9 9 5 5 1020.1 - 0.0
19/08:00pm 12.0 11.0 8.8 81 1.6 NE 4 6 2 3 1020.2 1020.0 0.0
19/07:30pm 12.0 10.6 8.8 81 1.6 NE 6 7 3 4 1019.9 - 0.0

Other Formats:

Comma delimited format used in spreadsheet applications
http://www.bom.gov.au/fwo/IDW60801/IDW60801.94449.axf

JavaScript Object Notation format (JSON) in row-major order
http://www.bom.gov.au/fwo/IDW60801/IDW60801.94449.json